This is the latest recevied weather packets stored in our database for station/object KO6HRZ. If no packets are shown the sender has not sent any weather packets the latest 10 day(s).
| Time | Temp. | Humidity | Pressure | Rain* | Wind** | Luminosity | Snow |
|---|---|---|---|---|---|---|---|
| 1777067184 | 23.33° C | 54% | 1012.3 hPa | 0 mm | - | 800 W/m² | - |
| 1777066580 | 23.33° C | 52% | 1012.4 hPa | 0 mm | - | 627 W/m² | - |
| 1777065975 | 23.89° C | 53% | 1012.4 hPa | 0 mm | - | 864 W/m² | - |
| 1777065371 | 23.33° C | 54% | 1012.8 hPa | 0 mm | - | 931 W/m² | - |
| 1777064770 | 23.33° C | 55% | 1012.7 hPa | 0 mm | - | 973 W/m² | - |
| 1777064169 | 21.67° C | 58% | 1012.8 hPa | 0 mm | - | 810 W/m² | - |
| 1777063570 | 21.11° C | 59% | 1012.8 hPa | 0 mm | - | 323 W/m² | - |
| 1777062969 | 21.67° C | 57% | 1013.3 hPa | 0 mm | - | 513 W/m² | - |
| 1777062363 | 20.56° C | 60% | 1013.1 hPa | 0 mm | - | 617 W/m² | - |
| 1777061763 | 20.56° C | 61% | 1013.2 hPa | 0 mm | - | 436 W/m² | - |
| 1777061161 | 20.56° C | 61% | 1013.2 hPa | 0 mm | - | 344 W/m² | - |
| 1777060557 | 20.56° C | 61% | 1013.3 hPa | 0 mm | - | 488 W/m² | - |
| 1777059956 | 20° C | 60% | 1013.3 hPa | 0 mm | - | 723 W/m² | - |
| 1777059355 | 20° C | 60% | 1013.6 hPa | 0 mm | - | 412 W/m² | - |
| 1777058750 | 20.56° C | 58% | 1013.4 hPa | 0 mm | - | 342 W/m² | - |
| 1777058149 | 20° C | 64% | 1013.8 hPa | 0 mm | - | 550 W/m² | - |
| 1777057545 | 20° C | 64% | 1013.8 hPa | 0 mm | - | 303 W/m² | - |
| 1777056943 | 20° C | 61% | 1014 hPa | 0 mm | - | 519 W/m² | - |
| 1777056344 | 20.56° C | 62% | 1014.2 hPa | 0 mm | - | 694 W/m² | - |
| 1777055743 | 19.44° C | 65% | 1014.2 hPa | 0 mm | - | 454 W/m² | - |
| 1777055138 | 19.44° C | 63% | 1014 hPa | 0 mm | - | 447 W/m² | - |
| 1777054536 | 19.44° C | 64% | 1014.1 hPa | 0 mm | - | 424 W/m² | - |
| 1777053932 | 19.44° C | 65% | 1014.2 hPa | 0 mm | - | 309 W/m² | - |
| 1777053326 | 19.44° C | 62% | 1014.2 hPa | 0 mm | - | 273 W/m² | - |
| 1777052726 | 19.44° C | 63% | 1014.2 hPa | 0 mm | - | 348 W/m² | - |
* Rain latest hour (hover to see other rain measurements)
** Current wind speed in m/s (hover to see current wind gust speed)